Time;durP1;ratioP1;P1;durP2;ratioP2;P2;SDS_P1;SDS_P2;PMS_P1;PMS_P2;Temp;Humidity;BMP_temperature;BMP_pressure;BME280_temperature;BME280_humidity;BME280_pressure;Samples;Min_cycle;Max_cycle;Signal;HPM_P1;HPM_P2
2021/03/26 00:00:57;;;;;;;;;;;;;;;19.36;34.24;100398.19;4418809;32;19971;-57
2021/03/26 00:03:23;;;;;;;;;;;;;;;19.37;34.21;100389.41;4418837;32;20048;-58
2021/03/26 00:05:49;;;;;;;;;;;;;;;19.40;34.17;100388.56;4417531;32;20339;-59
2021/03/26 00:08:15;;;;;;;;;;;;;;;19.39;34.20;100386.78;4418275;32;20033;-58
2021/03/26 00:10:41;;;;;;;;;;;;;;;19.40;34.15;100390.31;4419172;32;20294;-57
2021/03/26 00:13:07;;;;;;;;;;;;;;;19.38;34.13;100388.53;4419162;32;19946;-57
2021/03/26 00:15:33;;;;;;;;;;;;;;;19.37;34.22;100385.84;4418733;32;19954;-58
2021/03/26 00:17:59;;;;;;;;;;;;;;;19.34;34.27;100392.00;4419072;32;19942;-56
2021/03/26 00:20:24;;;;;;;;;;;;;;;19.34;34.24;100389.34;4417978;32;19958;-58
2021/03/26 00:22:50;;;;;;;;;;;;;;;19.35;34.21;100393.78;4418864;32;20327;-57
2021/03/26 00:25:16;;;;;;;;;;;;;;;19.36;34.23;100395.53;4417638;32;19957;-58
2021/03/26 00:27:42;;;;;;;;;;;;;;;19.34;34.22;100394.62;4419017;32;19983;-58
2021/03/26 00:30:08;;;;;;;;;;;;;;;19.33;34.34;100402.53;4418258;32;19973;-59
2021/03/26 00:32:34;;;;;;;;;;;;;;;19.34;34.27;100399.91;4418492;32;19993;-58
2021/03/26 00:35:00;;;;;;;;;;;;;;;19.35;34.27;100399.06;4417955;32;19988;-58
2021/03/26 00:37:26;;;;;;;;;;;;;;;19.30;34.33;100406.00;4417599;32;20407;-58
2021/03/26 00:39:52;;;;;;;;;;;;;;;19.30;34.31;100400.72;4418034;32;19981;-58
2021/03/26 00:42:17;;;;;;;;;;;;;;;19.30;34.27;100400.72;4418805;32;20000;-57
2021/03/26 00:44:43;;;;;;;;;;;;;;;19.30;34.46;100392.78;4418676;32;19995;-58
2021/03/26 00:47:09;;;;;;;;;;;;;;;19.30;34.38;100386.63;4417841;32;19950;-57
2021/03/26 00:49:35;;;;;;;;;;;;;;;19.31;34.30;100391.91;4418459;32;19993;-58
2021/03/26 00:52:01;;;;;;;;;;;;;;;19.23;34.49;100393.56;4418665;32;19950;-58
2021/03/26 00:54:27;;;;;;;;;;;;;;;19.23;34.47;100396.19;4417731;32;19958;-57
2021/03/26 00:56:53;;;;;;;;;;;;;;;19.23;34.45;100388.28;4418240;32;19984;-58
2021/03/26 00:59:18;;;;;;;;;;;;;;;19.25;34.42;100389.19;4417731;32;19946;-58
2021/03/26 01:01:44;;;;;;;;;;;;;;;19.24;34.50;100384.78;4418511;32;19954;-58
2021/03/26 01:04:10;;;;;;;;;;;;;;;19.23;34.44;100386.50;4417495;32;19976;-58
2021/03/26 01:06:36;;;;;;;;;;;;;;;19.21;34.53;100390.00;4417935;32;19952;-58
2021/03/26 01:09:02;;;;;;;;;;;;;;;19.24;34.44;100390.06;4402374;32;19946;-58
2021/03/26 01:11:28;;;;;;;;;;;;;;;19.25;34.43;100386.56;4402612;32;20514;-58
2021/03/26 01:13:56;;;;;;;;;;;;;;;19.26;34.38;100383.03;4417672;32;19988;-58
2021/03/26 01:16:21;;;;;;;;;;;;;;;19.22;34.47;100386.50;4418054;32;20353;-58
2021/03/26 01:18:47;;;;;;;;;;;;;;;19.23;34.37;100389.16;4417610;32;19954;-57
2021/03/26 01:21:13;;;;;;;;;;;;;;;19.18;34.64;100387.28;4416082;32;20317;-58
2021/03/26 01:23:39;;;;;;;;;;;;;;;19.19;34.58;100382.06;4418516;32;19950;-58
2021/03/26 01:26:05;;;;;;;;;;;;;;;19.17;34.61;100391.69;4417127;32;19986;-56
2021/03/26 01:28:31;;;;;;;;;;;;;;;19.18;34.59;100384.66;4417751;32;19951;-58
2021/03/26 01:30:57;;;;;;;;;;;;;;;19.17;34.67;100382.87;4417916;32;19954;-58
2021/03/26 01:33:23;;;;;;;;;;;;;;;19.17;34.66;100377.59;4417845;32;20025;-59
2021/03/26 01:35:49;;;;;;;;;;;;;;;19.18;34.67;100389.94;4417303;32;19957;-58
2021/03/26 01:38:14;;;;;;;;;;;;;;;19.16;34.67;100381.09;4417040;32;19958;-58
2021/03/26 01:40:40;;;;;;;;;;;;;;;19.22;34.42;100378.59;4417777;32;20335;-58
2021/03/26 01:43:06;;;;;;;;;;;;;;;19.17;34.54;100372.31;4417502;32;19950;-58
2021/03/26 01:45:32;;;;;;;;;;;;;;;19.19;34.56;100371.50;4417686;32;20403;-58
2021/03/26 01:47:58;;;;;;;;;;;;;;;19.17;34.63;100367.03;4417848;32;19949;-58
2021/03/26 01:50:24;;;;;;;;;;;;;;;19.19;34.50;100365.31;4417266;32;19957;-58
2021/03/26 01:52:50;;;;;;;;;;;;;;;19.13;34.72;100379.28;4417649;32;19984;-58
2021/03/26 01:55:16;;;;;;;;;;;;;;;19.14;34.65;100377.56;4417268;32;19996;-58
2021/03/26 01:57:41;;;;;;;;;;;;;;;19.16;34.64;100381.09;4417066;32;20023;-58
2021/03/26 02:00:07;;;;;;;;;;;;;;;19.10;34.73;100374.88;4416614;32;19965;-57
2021/03/26 02:02:33;;;;;;;;;;;;;;;19.13;34.68;100371.38;4417951;32;19953;-58
2021/03/26 02:04:59;;;;;;;;;;;;;;;19.11;34.76;100373.09;4417653;32;19970;-58
2021/03/26 02:07:25;;;;;;;;;;;;;;;19.05;34.89;100373.88;4416129;32;20614;-58
2021/03/26 02:09:51;;;;;;;;;;;;;;;19.09;34.72;100365.19;4402437;32;19973;-58
2021/03/26 02:12:17;;;;;;;;;;;;;;;19.10;34.76;100372.22;4402591;32;19946;-58
2021/03/26 02:14:43;;;;;;;;;;;;;;;19.06;34.83;100359.81;4400203;32;19950;-58
2021/03/26 02:17:09;;;;;;;;;;;;;;;19.13;34.75;100359.94;4401634;32;19969;-57
2021/03/26 02:19:35;;;;;;;;;;;;;;;19.10;34.74;100363.41;4413321;32;19991;-57
2021/03/26 02:22:00;;;;;;;;;;;;;;;19.09;34.73;100364.28;4417278;32;20370;-58
2021/03/26 02:24:26;;;;;;;;;;;;;;;19.10;34.70;100366.94;4416176;32;19958;-58
2021/03/26 02:26:52;;;;;;;;;;;;;;;19.08;34.84;100378.34;4417025;32;20347;-55
2021/03/26 02:29:27;;;;;;;;;;;;;;;19.04;34.90;100366.81;4416078;32;19962;-58
2021/03/26 02:31:53;;;;;;;;;;;;;;;18.96;35.13;100377.22;4417543;32;19954;-58
2021/03/26 02:34:19;;;;;;;;;;;;;;;19.05;34.91;100371.25;4416428;32;19972;-58
2021/03/26 02:36:45;;;;;;;;;;;;;;;19.06;34.87;100370.38;4416901;32;19954;-56
2021/03/26 02:39:11;;;;;;;;;;;;;;;19.12;34.80;100379.28;4415606;32;19950;-58
2021/03/26 02:41:39;;;;;;;;;;;;;;;19.14;34.70;100372.28;4417867;32;19957;-58
2021/03/26 02:44:04;;;;;;;;;;;;;;;19.14;34.72;100370.53;4416432;32;19969;-58
2021/03/26 02:46:30;;;;;;;;;;;;;;;19.10;34.74;100372.22;4416525;32;19995;-58
2021/03/26 02:48:56;;;;;;;;;;;;;;;19.06;34.87;100375.66;4416674;32;19974;-55
2021/03/26 02:51:22;;;;;;;;;;;;;;;19.04;34.81;100372.09;4416604;32;21319;-58
2021/03/26 02:53:48;;;;;;;;;;;;;;;19.01;34.70;100369.41;4416426;32;20615;-58
2021/03/26 02:56:14;;;;;;;;;;;;;;;19.02;34.94;100371.19;4416718;32;19985;-58
2021/03/26 02:58:40;;;;;;;;;;;;;;;18.99;34.87;100373.75;4416039;32;20364;-58
2021/03/26 03:01:06;;;;;;;;;;;;;;;19.01;34.93;100366.78;4416309;32;19989;-58
2021/03/26 03:03:32;;;;;;;;;;;;;;;19.00;34.81;100367.66;4417194;32;19962;-57
2021/03/26 03:05:57;;;;;;;;;;;;;;;19.08;34.69;100363.41;4417114;32;19954;-57
2021/03/26 03:08:23;;;;;;;;;;;;;;;19.06;34.73;100367.75;4414693;32;20002;-58
2021/03/26 03:10:49;;;;;;;;;;;;;;;19.06;34.83;100358.94;4416885;32;19954;-58
2021/03/26 03:13:15;;;;;;;;;;;;;;;19.03;34.90;100364.19;4416850;32;19950;-58
2021/03/26 03:15:41;;;;;;;;;;;;;;;19.05;34.83;100363.31;4416860;32;20581;-58
2021/03/26 03:18:07;;;;;;;;;;;;;;;19.06;34.74;100359.81;4416352;32;19995;-57
2021/03/26 03:20:33;;;;;;;;;;;;;;;19.05;34.68;100363.31;4416697;32;19954;-59
2021/03/26 03:22:59;;;;;;;;;;;;;;;19.02;34.96;100363.28;4416725;32;20353;-58
2021/03/26 03:25:25;;;;;;;;;;;;;;;18.98;34.94;100356.13;4416758;32;19984;-58
2021/03/26 03:27:50;;;;;;;;;;;;;;;19.00;34.94;100356.19;4416880;32;19988;-58
2021/03/26 03:30:16;;;;;;;;;;;;;;;19.02;34.84;100347.44;4415115;32;19996;-58
2021/03/26 03:32:42;;;;;;;;;;;;;;;18.97;34.83;100349.09;4417054;32;19961;-58
2021/03/26 03:35:08;;;;;;;;;;;;;;;19.04;34.79;100352.75;4409006;32;20294;-58
2021/03/26 03:37:34;;;;;;;;;;;;;;;19.05;34.88;100352.75;4400596;32;20061;-58
2021/03/26 03:40:00;;;;;;;;;;;;;;;19.01;34.79;100355.31;4407431;32;20343;-57
2021/03/26 03:42:26;;;;;;;;;;;;;;;19.01;34.84;100347.41;4416633;32;20099;-57
2021/03/26 03:44:52;;;;;;;;;;;;;;;18.99;34.98;100351.72;4416445;32;19962;-58
2021/03/26 03:47:18;;;;;;;;;;;;;;;18.99;34.85;100347.38;4415532;32;19958;-57
2021/03/26 03:49:43;;;;;;;;;;;;;;;18.95;34.98;100348.16;4417567;32;20730;-57
2021/03/26 03:52:09;;;;;;;;;;;;;;;18.96;34.98;100347.31;4419253;32;19954;-57
2021/03/26 03:54:35;;;;;;;;;;;;;;;18.98;34.70;100340.31;4419128;32;19954;-58
2021/03/26 03:57:01;;;;;;;;;;;;;;;19.00;34.85;100341.25;4419233;32;20335;-58
2021/03/26 03:59:27;;;;;;;;;;;;;;;18.98;35.03;100340.31;4418208;32;19966;-57
2021/03/26 04:01:53;;;;;;;;;;;;;;;18.99;34.86;100336.81;4419343;32;19966;-58
2021/03/26 04:04:19;;;;;;;;;;;;;;;18.97;34.87;100338.53;4418872;32;20654;-58
2021/03/26 04:06:45;;;;;;;;;;;;;;;18.94;34.89;100339.34;4418790;32;20000;-58
2021/03/26 04:09:10;;;;;;;;;;;;;;;18.93;34.99;100336.69;4418255;32;19985;-58
2021/03/26 04:11:36;;;;;;;;;;;;;;;18.90;34.97;100336.63;4419350;32;19992;-57
2021/03/26 04:14:03;;;;;;;;;;;;;;;18.95;35.01;100340.22;4419294;32;20256;-57
2021/03/26 04:16:28;;;;;;;;;;;;;;;18.94;34.98;100339.34;4408812;32;20071;-57
2021/03/26 04:18:54;;;;;;;;;;;;;;;18.90;35.06;100337.53;4419071;32;20010;-58
2021/03/26 04:21:21;;;;;;;;;;;;;;;18.95;35.00;100348.16;4418584;32;19962;-57
2021/03/26 04:23:47;;;;;;;;;;;;;;;18.89;35.15;100354.22;4418942;32;19953;-56
2021/03/26 04:26:13;;;;;;;;;;;;;;;18.93;35.02;100347.25;4418991;32;19954;-58
2021/03/26 04:28:39;;;;;;;;;;;;;;;18.87;35.16;100344.50;4418795;32;19968;-57
2021/03/26 04:31:05;;;;;;;;;;;;;;;18.93;35.03;100347.25;4417956;32;19995;-57
2021/03/26 04:33:30;;;;;;;;;;;;;;;18.89;35.09;100353.34;4418881;32;20031;-58
2021/03/26 04:35:56;;;;;;;;;;;;;;;18.86;35.16;100351.50;4418393;32;19958;-57
2021/03/26 04:38:22;;;;;;;;;;;;;;;18.91;35.24;100357.78;4417999;32;20370;-58
2021/03/26 04:40:48;;;;;;;;;;;;;;;18.89;35.12;100345.41;4418813;32;19951;-58
2021/03/26 04:43:14;;;;;;;;;;;;;;;18.87;35.14;100355.06;4418236;32;19954;-58
2021/03/26 04:45:40;;;;;;;;;;;;;;;18.89;35.09;100345.41;4418689;32;19954;-58
2021/03/26 04:48:06;;;;;;;;;;;;;;;18.88;35.07;100343.62;4418171;32;20592;-57
2021/03/26 04:50:32;;;;;;;;;;;;;;;18.92;35.03;100342.81;4418506;32;19958;-58
2021/03/26 04:52:57;;;;;;;;;;;;;;;18.88;35.11;100346.28;4418829;32;19954;-56
2021/03/26 04:55:23;;;;;;;;;;;;;;;18.87;35.20;100347.12;4418028;32;20041;-58
2021/03/26 04:57:49;;;;;;;;;;;;;;;18.81;35.21;100345.28;4418252;32;19946;-58
2021/03/26 05:00:15;;;;;;;;;;;;;;;18.84;35.16;100352.37;4416919;32;20347;-58
2021/03/26 05:02:41;;;;;;;;;;;;;;;18.82;35.13;100345.28;4418883;32;19999;-58
2021/03/26 05:05:07;;;;;;;;;;;;;;;18.80;35.06;100341.75;4417254;32;19951;-57
2021/03/26 05:07:33;;;;;;;;;;;;;;;18.77;35.23;100346.09;4416734;32;20022;-58
2021/03/26 05:09:59;;;;;;;;;;;;;;;18.79;35.21;100345.25;4417985;32;19996;-58
2021/03/26 05:12:25;;;;;;;;;;;;;;;18.82;35.14;100350.56;4418219;32;20284;-57
2021/03/26 05:14:51;;;;;;;;;;;;;;;18.87;35.08;100344.50;4418111;32;19946;-59
2021/03/26 05:17:16;;;;;;;;;;;;;;;18.79;35.23;100350.50;4417666;32;19974;-58
2021/03/26 05:19:43;;;;;;;;;;;;;;;18.78;35.16;100353.16;4417820;32;19950;-56
2021/03/26 05:22:09;;;;;;;;;;;;;;;18.81;35.09;100354.06;4417717;32;20078;-57
2021/03/26 05:24:35;;;;;;;;;;;;;;;18.78;35.19;100353.16;4417918;32;19973;-57
2021/03/26 05:27:01;;;;;;;;;;;;;;;18.80;35.14;100352.28;4417733;32;20335;-57
2021/03/26 05:29:26;;;;;;;;;;;;;;;18.77;35.28;100354.88;4417689;32;20042;-58
2021/03/26 05:31:52;;;;;;;;;;;;;;;18.71;35.30;100357.41;4418296;32;19970;-59
2021/03/26 05:34:18;;;;;;;;;;;;;;;18.80;35.16;100352.28;4415972;32;19961;-58
2021/03/26 05:36:44;;;;;;;;;;;;;;;18.80;35.10;100347.00;4417943;32;19965;-57
2021/03/26 05:39:10;;;;;;;;;;;;;;;18.81;35.15;100354.06;4417039;32;19946;-57
2021/03/26 05:41:36;;;;;;;;;;;;;;;18.73;35.20;100355.69;4414707;32;19988;-57
2021/03/26 05:44:02;;;;;;;;;;;;;;;18.72;35.25;100353.91;4405847;32;19973;-57
2021/03/26 05:46:28;;;;;;;;;;;;;;;18.71;35.29;100362.69;4417425;32;20395;-55
2021/03/26 05:48:54;;;;;;;;;;;;;;;18.76;35.07;100358.38;4417460;32;19950;-58
2021/03/26 05:51:20;;;;;;;;;;;;;;;18.76;35.14;100366.28;4416323;32;19962;-58
2021/03/26 05:53:46;;;;;;;;;;;;;;;18.75;35.06;100363.63;4417535;32;20004;-57
2021/03/26 05:56:11;;;;;;;;;;;;;;;18.73;35.21;100365.34;4417097;32;20385;-58
2021/03/26 05:58:37;;;;;;;;;;;;;;;18.72;35.13;100364.47;4417424;32;19968;-58
2021/03/26 06:01:03;;;;;;;;;;;;;;;18.66;35.32;100359.06;4416351;32;19987;-57
2021/03/26 06:03:29;;;;;;;;;;;;;;;18.65;35.29;100362.56;4417429;32;20279;-58
2021/03/26 06:05:55;;;;;;;;;;;;;;;18.73;35.18;100360.97;4414161;32;20020;-57
2021/03/26 06:08:21;;;;;;;;;;;;;;;18.73;35.13;100355.69;4417347;32;19985;-58
2021/03/26 06:10:47;;;;;;;;;;;;;;;18.69;35.26;100364.38;4418405;32;19966;-57
2021/03/26 06:13:13;;;;;;;;;;;;;;;18.73;35.20;100355.69;4417692;32;19966;-56
2021/03/26 06:15:39;;;;;;;;;;;;;;;18.71;35.30;100362.69;4417613;32;19974;-57
2021/03/26 06:18:04;;;;;;;;;;;;;;;18.71;35.16;100367.06;4417032;32;19942;-56
2021/03/26 06:20:30;;;;;;;;;;;;;;;18.70;35.35;100360.88;4416995;32;19983;-57
2021/03/26 06:22:56;;;;;;;;;;;;;;;18.70;35.20;100360.88;4417815;32;20343;-58
2021/03/26 06:25:22;;;;;;;;;;;;;;;18.65;35.18;100359.94;4417380;32;19948;-57
2021/03/26 06:27:48;;;;;;;;;;;;;;;18.67;35.31;100355.56;4417852;32;19953;-56
2021/03/26 06:30:14;;;;;;;;;;;;;;;18.72;35.30;100358.28;4417766;32;19963;-56
2021/03/26 06:32:40;;;;;;;;;;;;;;;18.70;35.33;100350.34;4411737;32;19955;-56
2021/03/26 06:35:07;;;;;;;;;;;;;;;18.65;35.35;100352.00;4416575;32;20006;-55
2021/03/26 06:37:33;;;;;;;;;;;;;;;18.66;35.37;100359.06;4417268;32;19978;-57
2021/03/26 06:39:59;;;;;;;;;;;;;;;18.66;35.39;100348.50;4417364;32;20677;-54
2021/03/26 06:42:24;;;;;;;;;;;;;;;18.67;35.33;100350.28;4417558;32;19968;-55
2021/03/26 06:44:50;;;;;;;;;;;;;;;18.70;35.37;100344.19;4417499;32;20380;-56
2021/03/26 06:47:17;;;;;;;;;;;;;;;18.74;35.28;100352.19;4416966;32;19958;-57
2021/03/26 06:49:48;;;;;;;;;;;;;;;18.74;35.21;100352.19;4417971;32;19954;-57
2021/03/26 06:52:14;;;;;;;;;;;;;;;18.80;35.15;100349.66;4417554;32;19987;-57
2021/03/26 06:54:40;;;;;;;;;;;;;;;18.81;35.12;100343.50;4416378;32;19939;-57
2021/03/26 06:57:06;;;;;;;;;;;;;;;18.88;35.09;100354.19;4416709;32;19985;-56
2021/03/26 06:59:32;;;;;;;;;;;;;;;18.83;35.15;100346.19;4417846;32;19993;-57
2021/03/26 07:01:58;;;;;;;;;;;;;;;18.84;35.12;100353.25;4416856;32;20349;-57
2021/03/26 07:04:24;;;;;;;;;;;;;;;18.78;35.31;100358.41;4416775;32;19970;-57
2021/03/26 07:06:50;;;;;;;;;;;;;;;18.79;35.25;100361.06;4416673;32;20408;-56
2021/03/26 07:09:16;;;;;;;;;;;;;;;18.83;35.17;100356.75;4415651;32;20047;-56
2021/03/26 07:11:41;;;;;;;;;;;;;;;18.82;35.25;100354.97;4416392;32;19954;-57
2021/03/26 07:14:08;;;;;;;;;;;;;;;18.82;35.25;100354.97;4416454;32;20331;-56
2021/03/26 07:16:34;;;;;;;;;;;;;;;18.84;35.22;100352.37;4416427;32;19954;-57
2021/03/26 07:19:00;;;;;;;;;;;;;;;18.89;35.18;100355.97;4415623;32;19987;-56
2021/03/26 07:21:26;;;;;;;;;;;;;;;18.90;35.14;100357.75;4416947;32;19958;-56
2021/03/26 07:23:52;;;;;;;;;;;;;;;18.89;35.21;100359.50;4416525;32;20308;-57
2021/03/26 07:26:18;;;;;;;;;;;;;;;18.89;35.20;100358.59;4419728;32;19946;-56
2021/03/26 07:28:45;;;;;;;;;;;;;;;18.90;35.26;100352.47;4419014;32;19954;-57
2021/03/26 07:31:11;;;;;;;;;;;;;;;18.88;35.31;100357.69;4418943;32;19966;-57
2021/03/26 07:33:37;;;;;;;;;;;;;;;18.89;35.29;100355.97;4417588;32;20361;-58
2021/03/26 07:36:03;;;;;;;;;;;;;;;18.90;35.33;100357.75;4420196;32;20330;-56
2021/03/26 07:38:29;;;;;;;;;;;;;;;18.92;35.26;100348.09;4418485;32;19950;-56
2021/03/26 07:40:54;;;;;;;;;;;;;;;18.96;35.16;100352.59;4419337;32;19946;-55
2021/03/26 07:43:20;;;;;;;;;;;;;;;18.95;35.21;100351.69;4418822;32;20365;-57
2021/03/26 07:45:46;;;;;;;;;;;;;;;18.98;35.19;100352.59;4419862;32;19958;-57
2021/03/26 07:48:12;;;;;;;;;;;;;;;18.99;35.14;100357.00;4419559;32;19986;-56
2021/03/26 07:50:38;;;;;;;;;;;;;;;18.97;35.24;100354.38;4418070;32;19987;-56
2021/03/26 07:53:04;;;;;;;;;;;;;;;18.99;35.20;100359.66;4418245;32;20048;-58
2021/03/26 07:55:30;;;;;;;;;;;;;;;19.01;35.17;100352.69;4418928;32;20264;-56
2021/03/26 07:57:56;;;;;;;;;;;;;;;18.99;35.24;100350.00;4419666;32;19974;-57
2021/03/26 08:00:22;;;;;;;;;;;;;;;19.00;35.22;100346.53;4418774;32;19965;-58
2021/03/26 08:02:48;;;;;;;;;;;;;;;19.00;35.23;100349.16;4419005;32;19966;-57
2021/03/26 08:05:14;;;;;;;;;;;;;;;18.98;35.39;100349.97;4418420;32;19946;-57
2021/03/26 08:07:40;;;;;;;;;;;;;;;18.87;35.51;100340.09;4418216;32;20353;-57
2021/03/26 08:10:06;;;;;;;;;;;;;;;18.82;35.60;100349.69;4414420;32;20005;-57
2021/03/26 08:12:32;;;;;;;;;;;;;;;18.77;35.83;100346.09;4418680;32;20005;-57
2021/03/26 08:14:58;;;;;;;;;;;;;;;18.89;35.57;100350.69;4418207;32;20029;-56
2021/03/26 08:17:24;;;;;;;;;;;;;;;18.99;35.41;100352.63;4417016;32;19954;-58
2021/03/26 08:19:51;;;;;;;;;;;;;;;19.01;35.36;100345.66;4417873;32;19966;-53
2021/03/26 08:22:17;;;;;;;;;;;;;;;19.07;35.31;100352.81;4417646;32;19958;-58
2021/03/26 08:24:42;;;;;;;;;;;;;;;19.13;35.22;100352.03;4416491;32;19994;-56
2021/03/26 08:27:08;;;;;;;;;;;;;;;19.17;35.15;100351.19;4416687;32;20354;-57
2021/03/26 08:29:34;;;;;;;;;;;;;;;19.16;35.21;100359.97;4417910;32;19993;-55
2021/03/26 08:32:00;;;;;;;;;;;;;;;19.18;35.17;100352.97;4417408;32;20495;-56
2021/03/26 08:34:26;;;;;;;;;;;;;;;19.22;35.07;100350.41;4413968;32;19958;-56
2021/03/26 08:36:52;;;;;;;;;;;;;;;19.24;35.10;100359.25;4402928;32;19970;-56
2021/03/26 08:39:18;;;;;;;;;;;;;;;19.27;35.08;100355.78;4403461;32;19993;-58
2021/03/26 08:41:44;;;;;;;;;;;;;;;19.25;35.12;100354.88;4418186;32;19991;-57
2021/03/26 08:44:10;;;;;;;;;;;;;;;19.29;35.07;100354.03;4417151;32;19958;-58
2021/03/26 08:46:36;;;;;;;;;;;;;;;19.31;35.07;100348.81;4417184;32;19979;-57
2021/03/26 08:49:02;;;;;;;;;;;;;;;19.31;35.08;100348.81;4417350;32;19964;-56
2021/03/26 08:51:28;;;;;;;;;;;;;;;19.34;35.08;100355.03;4417695;32;19989;-58
2021/03/26 08:53:54;;;;;;;;;;;;;;;19.34;35.10;100349.75;4416561;32;19950;-53
2021/03/26 08:56:20;;;;;;;;;;;;;;;19.12;35.67;100345.84;4416881;32;19966;-58
2021/03/26 08:58:46;;;;;;;;;;;;;;;19.15;35.61;100348.56;4416817;32;20357;-57
2021/03/26 09:01:14;;;;;;;;;;;;;;;19.18;35.54;100351.25;4417029;32;20753;-56
2021/03/26 09:03:40;;;;;;;;;;;;;;;19.30;35.38;100352.31;4416726;32;19962;-54
2021/03/26 09:06:06;;;;;;;;;;;;;;;19.37;35.25;100349.78;4415962;32;20543;-58
2021/03/26 09:08:31;;;;;;;;;;;;;;;19.22;35.46;100354.81;4400739;32;19950;-57
2021/03/26 09:10:57;;;;;;;;;;;;;;;19.26;35.46;100351.38;4401228;32;19955;-55
2021/03/26 09:13:23;;;;;;;;;;;;;;;19.33;35.39;100347.06;4401901;32;20374;-56
2021/03/26 09:15:49;;;;;;;;;;;;;;;19.37;35.34;100341.87;4401381;32;19954;-56
2021/03/26 09:18:15;;;;;;;;;;;;;;;19.38;35.32;100338.34;4401346;32;20351;-57
2021/03/26 09:20:41;;;;;;;;;;;;;;;19.40;35.33;100340.12;4399585;32;19946;-58
2021/03/26 09:23:07;;;;;;;;;;;;;;;19.38;35.35;100335.72;4374754;32;19959;-57
2021/03/26 09:25:33;;;;;;;;;;;;;;;19.39;35.36;100336.63;4391132;32;19961;-57
2021/03/26 09:27:58;;;;;;;;;;;;;;;19.40;35.36;100332.22;4400983;32;20295;-58
2021/03/26 09:30:24;;;;;;;;;;;;;;;19.43;35.39;100332.25;4416198;32;19977;-57
2021/03/26 09:32:50;;;;;;;;;;;;;;;19.42;35.43;100328.75;4416969;32;19965;-56
2021/03/26 09:35:16;;;;;;;;;;;;;;;19.44;35.40;100323.47;4416882;32;19949;-55
2021/03/26 09:37:42;;;;;;;;;;;;;;;19.46;35.39;100321.75;4416916;32;19954;-58
2021/03/26 09:40:08;;;;;;;;;;;;;;;19.47;35.38;100326.16;4415597;32;19950;-56
2021/03/26 09:42:34;;;;;;;;;;;;;;;19.50;35.38;100326.22;4416875;32;19950;-57
2021/03/26 09:45:00;;;;;;;;;;;;;;;19.50;35.37;100323.56;4416793;32;19950;-57
2021/03/26 09:47:25;;;;;;;;;;;;;;;19.52;35.38;100327.12;4414178;32;19957;-56
2021/03/26 09:49:51;;;;;;;;;;;;;;;19.53;35.38;100318.31;4415405;32;19962;-57
2021/03/26 09:52:17;;;;;;;;;;;;;;;19.52;35.39;100311.28;4414813;32;19946;-57
2021/03/26 09:54:43;;;;;;;;;;;;;;;19.54;35.40;100312.19;4415308;32;19980;-57
2021/03/26 09:57:09;;;;;;;;;;;;;;;19.55;35.40;100316.59;4415645;32;19968;-54
2021/03/26 09:59:36;;;;;;;;;;;;;;;19.55;35.37;100316.59;4414798;32;20333;-58
2021/03/26 10:02:02;;;;;;;;;;;;;;;19.51;35.48;100314.78;4415847;32;19958;-58
2021/03/26 10:04:28;;;;;;;;;;;;;;;19.52;35.46;100306.00;4414560;32;20000;-58
2021/03/26 10:06:53;;;;;;;;;;;;;;;19.47;35.55;100305.91;4406117;32;19950;-57
2021/03/26 10:11:48;;;;;;;;;;;;;;;19.53;35.49;100297.19;4408729;32;20275;-57
2021/03/26 10:14:14;;;;;;;;;;;;;;;19.54;35.46;100298.09;4414997;32;19962;-55
2021/03/26 10:16:40;;;;;;;;;;;;;;;19.44;35.76;100287.38;4416484;32;19977;-54
2021/03/26 10:19:06;;;;;;;;;;;;;;;19.37;36.00;100280.22;4414979;32;20263;-54
2021/03/26 10:21:32;;;;;;;;;;;;;;;19.40;36.05;100282.03;4416063;32;19958;-52
2021/03/26 10:23:58;;;;;;;;;;;;;;;19.34;36.35;100274.91;4414590;32;19993;-54
2021/03/26 10:26:24;;;;;;;;;;;;;;;19.37;36.20;100275.84;4399986;32;20272;-52
2021/03/26 10:28:50;;;;;;;;;;;;;;;19.37;36.20;100270.56;4388656;32;19985;-55
2021/03/26 10:31:16;;;;;;;;;;;;;;;19.37;36.16;100270.56;4397201;32;19990;-59
2021/03/26 10:33:42;;;;;;;;;;;;;;;19.26;36.58;100263.34;4399404;32;20005;-51
2021/03/26 10:36:08;;;;;;;;;;;;;;;18.71;37.64;100257.19;4415719;32;19964;-56
2021/03/26 10:38:33;;;;;;;;;;;;;;;18.99;37.21;100256.72;4414548;32;20012;-56
2021/03/26 10:41:00;;;;;;;;;;;;;;;19.09;37.03;100251.69;4414258;32;19964;-57
2021/03/26 10:43:26;;;;;;;;;;;;;;;19.06;37.07;100237.53;4413456;32;19950;-55
2021/03/26 10:45:52;;;;;;;;;;;;;;;19.14;36.88;100241.19;4414060;32;20395;-55
2021/03/26 10:48:18;;;;;;;;;;;;;;;19.30;36.57;100238.78;4413094;32;20004;-53
2021/03/26 10:50:44;;;;;;;;;;;;;;;19.33;36.49;100230.87;4415287;32;19981;-54
2021/03/26 10:53:10;;;;;;;;;;;;;;;19.34;36.54;100230.03;4414227;32;19997;-57
2021/03/26 10:55:36;;;;;;;;;;;;;;;19.31;36.64;100225.56;4415252;32;19992;-56
2021/03/26 10:58:03;;;;;;;;;;;;;;;19.34;36.70;100223.00;4414951;32;19954;-54
2021/03/26 11:00:29;;;;;;;;;;;;;;;19.35;36.72;100213.31;4417309;32;20007;-56
2021/03/26 11:02:55;;;;;;;;;;;;;;;19.34;36.78;100207.16;4419572;32;20002;-51
2021/03/26 11:05:24;;;;;;;;;;;;;;;19.45;36.58;100209.06;4418949;32;19946;-55
2021/03/26 11:07:49;;;;;;;;;;;;;;;19.35;36.74;100205.38;4418769;32;20321;-56
2021/03/26 11:10:16;;;;;;;;;;;;;;;19.41;36.62;100201.94;4419059;32;20009;-55
2021/03/26 11:12:41;;;;;;;;;;;;;;;19.38;36.66;100201.03;4419983;32;19973;-55
2021/03/26 11:15:07;;;;;;;;;;;;;;;19.40;36.68;100189.63;4418440;32;20407;-56
2021/03/26 11:17:33;;;;;;;;;;;;;;;19.42;36.66;100194.06;4419071;32;19968;-56
2021/03/26 11:19:59;;;;;;;;;;;;;;;19.42;36.69;100182.59;4419587;32;19980;-54
2021/03/26 11:22:25;;;;;;;;;;;;;;;19.42;36.71;100172.03;4418413;32;20318;-54
2021/03/26 11:24:51;;;;;;;;;;;;;;;19.43;36.75;100177.34;4419296;32;19985;-56
2021/03/26 11:27:17;;;;;;;;;;;;;;;19.45;36.69;100172.09;4418173;32;19958;-54
2021/03/26 11:29:42;;;;;;;;;;;;;;;19.47;36.56;100173.00;4418255;32;20107;-54
2021/03/26 11:32:08;;;;;;;;;;;;;;;19.49;36.69;100163.34;4418514;32;20698;-56
2021/03/26 11:34:34;;;;;;;;;;;;;;;19.49;36.64;100161.56;4419282;32;20013;-54
2021/03/26 11:37:00;;;;;;;;;;;;;;;19.52;36.70;100152.81;4418899;32;20025;-57
2021/03/26 11:39:26;;;;;;;;;;;;;;;19.52;36.72;100152.81;4418584;32;19962;-53
2021/03/26 11:41:52;;;;;;;;;;;;;;;19.37;37.00;100146.47;4419179;32;19958;-54
2021/03/26 11:44:18;;;;;;;;;;;;;;;19.54;36.81;100144.91;4417619;32;19993;-56
2021/03/26 11:46:44;;;;;;;;;;;;;;;19.58;36.80;100144.06;4419306;32;19954;-57
2021/03/26 11:49:10;;;;;;;;;;;;;;;19.44;37.02;100135.97;4418599;32;20244;-56
2021/03/26 11:51:35;;;;;;;;;;;;;;;19.61;36.81;100131.78;4416997;32;19970;-56
2021/03/26 11:54:01;;;;;;;;;;;;;;;19.65;36.79;100138.87;4419579;32;19947;-52
2021/03/26 11:56:27;;;;;;;;;;;;;;;19.66;36.78;100139.78;4418694;32;19953;-56
2021/03/26 11:58:53;;;;;;;;;;;;;;;19.65;36.77;100130.06;4413671;32;19962;-56
2021/03/26 12:01:19;;;;;;;;;;;;;;;19.66;36.82;100124.78;4403724;32;20336;-57
2021/03/26 12:03:45;;;;;;;;;;;;;;;19.70;36.77;100124.84;4413702;32;19995;-57
2021/03/26 12:06:11;;;;;;;;;;;;;;;19.70;36.78;100119.56;4418890;32;19977;-57
2021/03/26 12:08:37;;;;;;;;;;;;;;;19.70;36.85;100122.19;4420073;32;19961;-57
2021/03/26 12:11:03;;;;;;;;;;;;;;;19.70;36.90;100122.19;4419314;32;19939;-55
2021/03/26 12:13:29;;;;;;;;;;;;;;;19.69;36.81;100117.75;4418569;32;20354;-56
2021/03/26 12:15:55;;;;;;;;;;;;;;;19.75;36.84;100115.19;4418192;32;19962;-56
2021/03/26 12:18:22;;;;;;;;;;;;;;;19.72;36.88;100107.25;4418535;32;19954;-57
2021/03/26 12:20:48;;;;;;;;;;;;;;;19.79;36.77;100109.06;4418416;32;19950;-56
2021/03/26 12:23:18;;;;;;;;;;;;;;;19.78;36.70;100105.56;4418843;32;20397;-57
2021/03/26 12:25:44;;;;;;;;;;;;;;;19.79;36.79;100109.06;4418761;32;19960;-56
2021/03/26 12:28:10;;;;;;;;;;;;;;;19.79;36.77;100101.16;4417974;32;19954;-56
2021/03/26 12:30:35;;;;;;;;;;;;;;;19.81;36.70;100107.31;4418735;32;19999;-55